Midnight Sun — CFG7615 — position and weather

sailwx.info

Track history (hours):
 
Tides and Currents Weather Stations Pressure Air Temp Water Temp Dewpoint Dewpoint Depression Visibility Wind Speed Wind Dir Waves Ship Positions

Midnight Sun

Last reported at 2017-May-19 02:04 UTC. Time now 2017-May-23 01:10 UTC.
Position N 49°15' W 123°23'.

Length 25 m.

Type: Pleasure craft. MMSI: 316001152.

Date/timePositionNaut miles runAvg speedWind from/ knotsBaromVisibWave heightAir tempDewpointWater temp
2017-May-19 02:04N 49°15' W 123°23'1 9.3
2017-May-19 01:57N 49°15' W 123°22'4 9.0
2017-May-19 01:30N 49°17' W 123°16'5 8.5
2017-May-19 00:57N 49°19' W 123°10'2 4.6
2017-May-19 00:30N 49°18' W 123°07'0 0.1
2017-May-18 21:00N 49°18' W 123°08'0 0.0
2017-May-18 20:15N 49°18' W 123°08'0 0.0
2017-May-18 16:42N 49°18' W 123°08'0 0.0
2017-May-18 11:06N 49°18' W 123°08'0 0.0
2017-May-18 08:30N 49°18' W 123°08'0 0.0
2017-May-18 04:30N 49°18' W 123°08'0 0.0
2017-May-18 03:12N 49°18' W 123°08'0 0.0
2017-May-18 01:18N 49°18' W 123°08'0 0.0
2017-May-18 00:06N 49°18' W 123°08'0 0.0
2017-May-17 17:42N 49°18' W 123°08'0 0.0
2017-May-17 16:30N 49°18' W 123°08'0 0.0
2017-May-17 15:58N 49°18' W 123°08'0 0.0
2017-May-16 22:46N 49°18' W 123°08'0 0.0
2017-May-16 22:16N 49°18' W 123°08'0 0.0
2017-May-16 21:58N 49°18' W 123°08'0 0.0
2017-May-16 21:28N 49°18' W 123°08'0 0.0
2017-May-16 20:58N 49°18' W 123°08'0 0.0
2017-May-16 10:48N 49°18' W 123°08'0 0.0
2017-May-16 03:36N 49°18' W 123°08'0 0.0
2017-May-16 03:24N 49°18' W 123°08'0 0.0
2017-May-16 01:33N 49°18' W 123°08'0 0.0
2017-May-15 21:57N 49°18' W 123°08'0 0.0
2017-May-15 18:51N 49°18' W 123°08'0 0.0
2017-May-15 10:32N 49°18' W 123°08'0 0.0
2017-May-15 08:01N 49°18' W 123°08'0 0.0
2017-May-15 05:20N 49°18' W 123°08'0 0.0
2017-May-15 04:56N 49°18' W 123°08'0 0.0
2017-May-15 03:07N 49°18' W 123°08'0 0.0
2017-May-15 02:44N 49°18' W 123°08'0 0.0
2017-May-15 02:20N 49°18' W 123°08'0 0.0
2017-May-14 23:02N 49°18' W 123°08'0 0.0
2017-May-14 22:50N 49°18' W 123°08'0 0.0
2017-May-14 02:55N 49°18' W 123°08'0 0.0
2017-May-14 02:28N 49°18' W 123°08'1 1.4
2017-May-14 02:00N 49°18' W 123°07'3 5.9
2017-May-14 01:28N 49°16' W 123°11'0 0.0
2017-May-14 00:52N 49°16' W 123°11'0 0.0
2017-May-14 00:28N 49°16' W 123°11'0 0.0
2017-May-13 23:55N 49°16' W 123°11'0 0.0
2017-May-13 23:28N 49°16' W 123°11'0 0.0
2017-May-13 22:58N 49°16' W 123°11'0 0.0
2017-May-13 22:28N 49°16' W 123°11'0 0.0
2017-May-13 21:55N 49°16' W 123°11'0 0.0
2017-May-13 21:28N 49°16' W 123°11'1 1.3
2017-May-13 21:00N 49°17' W 123°11'0 0.2
2017-May-13 20:30N 49°17' W 123°11'1 1.1
2017-May-13 19:59N 49°17' W 123°10'2 3.4
2017-May-13 19:28N 49°16' W 123°08'0 0.6
2017-May-13 18:59N 49°16' W 123°08'2 4.4
2017-May-13 18:25N 49°17' W 123°12'0 0.8
2017-May-13 18:00N 49°17' W 123°11'0 0.3
2017-May-13 17:26N 49°16' W 123°11'0 0.0
2017-May-13 16:59N 49°16' W 123°11'0 0.0
2017-May-13 16:29N 49°16' W 123°11'0 0.0
2017-May-13 15:41N 49°16' W 123°11'0 0.0
2017-May-13 15:17N 49°16' W 123°11'0 0.0
2017-May-13 14:56N 49°16' W 123°11'0 0.0
2017-May-13 14:26N 49°16' W 123°11'0 0.0
2017-May-13 13:26N 49°16' W 123°11'0 0.0
2017-May-13 12:59N 49°16' W 123°11'0 0.0
2017-May-13 12:29N 49°16' W 123°11'0 0.0
2017-May-13 11:59N 49°16' W 123°11'0 0.0
2017-May-13 11:29N 49°16' W 123°11'0 0.0
2017-May-13 10:56N 49°16' W 123°11'0 0.0
2017-May-13 10:26N 49°16' W 123°11'0 0.0
2017-May-13 09:56N 49°16' W 123°11'0 0.0
2017-May-13 09:29N 49°16' W 123°11'0 0.0
2017-May-13 08:59N 49°16' W 123°11'0 0.0
2017-May-13 08:23N 49°16' W 123°11'0 0.0
2017-May-13 07:59N 49°16' W 123°11'0 0.0
2017-May-13 07:26N 49°16' W 123°11'0 0.0
2017-May-13 06:44N 49°16' W 123°11'0 0.0
2017-May-13 06:29N 49°16' W 123°11'0 0.0
2017-May-13 05:59N 49°16' W 123°11'0 0.0
2017-May-13 05:29N 49°16' W 123°11'0 0.0
2017-May-13 04:44N 49°16' W 123°11'0 0.0
2017-May-13 04:29N 49°16' W 123°11'0 0.0
2017-May-13 03:56N 49°16' W 123°11'0 0.0
2017-May-13 03:29N 49°16' W 123°11'0 0.0
2017-May-13 02:59N 49°16' W 123°11'0 0.0
2017-May-13 02:26N 49°16' W 123°11'0 0.0
2017-May-13 01:44N 49°16' W 123°11'1 2.9
2017-May-13 01:29N 49°17' W 123°11'3 5.4
2017-May-13 00:58N 49°18' W 123°07'1 0.1
2017-May-12 13:11N 49°18' W 123°08'0 0.0
2017-May-12 12:44N 49°18' W 123°08'0 0.0
2017-May-12 12:23N 49°18' W 123°08'0 0.0
2017-May-12 11:53N 49°18' W 123°08'0 0.0
2017-May-12 01:29N 49°18' W 123°08'0 0.0
2017-May-12 00:41N 49°18' W 123°08'0 0.0
2017-May-11 02:40N 49°18' W 123°08'0 0.0
2017-May-11 01:19N 49°18' W 123°08'0 0.0
2017-May-10 01:34N 49°18' W 123°08'0 0.0
2017-May-10 01:28N 49°18' W 123°08'0 0.0
2017-May-09 20:01N 49°18' W 123°08'0 0.0
2017-May-09 19:55N 49°18' W 123°08'0 0.0
2017-May-09 18:25N 49°18' W 123°08'0 0.0
2017-May-09 14:43N 49°18' W 123°08'0 0.0
2017-May-09 09:58N 49°18' W 123°08'0 0.0
2017-May-09 09:01N 49°18' W 123°08'0 0.0
2017-May-09 08:49N 49°18' W 123°08'0 0.0
2017-May-09 08:25N 49°18' W 123°08'0 0.0
2017-May-09 07:58N 49°18' W 123°08'0 0.0
2017-May-09 07:28N 49°18' W 123°08'  
Track history (hours):
 
Tides and Currents Weather Stations Pressure Air Temp Water Temp Dewpoint Dewpoint Depression Visibility Wind Speed Wind Dir Waves Ship Positions

Midnight Sun

Last reported at 2017-May-19 02:04 UTC. Time now 2017-May-23 01:10 UTC.
Position N 49°15' W 123°23'.

Length 25 m.

Type: Pleasure craft. MMSI: 316001152.

Date/timePositionNaut miles runAvg speedWind from/ knotsBaromVisibWave heightAir tempDewpointWater temp
2017-May-19 02:04N 49°15' W 123°23'1 9.3
2017-May-19 01:57N 49°15' W 123°22'4 9.0
2017-May-19 01:30N 49°17' W 123°16'5 8.5
2017-May-19 00:57N 49°19' W 123°10'2 4.6
2017-May-19 00:30N 49°18' W 123°07'0 0.1
2017-May-18 21:00N 49°18' W 123°08'0 0.0
2017-May-18 20:15N 49°18' W 123°08'0 0.0
2017-May-18 16:42N 49°18' W 123°08'0 0.0
2017-May-18 11:06N 49°18' W 123°08'0 0.0
2017-May-18 08:30N 49°18' W 123°08'0 0.0
2017-May-18 04:30N 49°18' W 123°08'0 0.0
2017-May-18 03:12N 49°18' W 123°08'0 0.0
2017-May-18 01:18N 49°18' W 123°08'0 0.0
2017-May-18 00:06N 49°18' W 123°08'0 0.0
2017-May-17 17:42N 49°18' W 123°08'0 0.0
2017-May-17 16:30N 49°18' W 123°08'0 0.0
2017-May-17 15:58N 49°18' W 123°08'0 0.0
2017-May-16 22:46N 49°18' W 123°08'0 0.0
2017-May-16 22:16N 49°18' W 123°08'0 0.0
2017-May-16 21:58N 49°18' W 123°08'0 0.0
2017-May-16 21:28N 49°18' W 123°08'0 0.0
2017-May-16 20:58N 49°18' W 123°08'0 0.0
2017-May-16 10:48N 49°18' W 123°08'0 0.0
2017-May-16 03:36N 49°18' W 123°08'0 0.0
2017-May-16 03:24N 49°18' W 123°08'0 0.0
2017-May-16 01:33N 49°18' W 123°08'0 0.0
2017-May-15 21:57N 49°18' W 123°08'0 0.0
2017-May-15 18:51N 49°18' W 123°08'0 0.0
2017-May-15 10:32N 49°18' W 123°08'0 0.0
2017-May-15 08:01N 49°18' W 123°08'0 0.0
2017-May-15 05:20N 49°18' W 123°08'0 0.0
2017-May-15 04:56N 49°18' W 123°08'0 0.0
2017-May-15 03:07N 49°18' W 123°08'0 0.0
2017-May-15 02:44N 49°18' W 123°08'0 0.0
2017-May-15 02:20N 49°18' W 123°08'0 0.0
2017-May-14 23:02N 49°18' W 123°08'0 0.0
2017-May-14 22:50N 49°18' W 123°08'0 0.0
2017-May-14 02:55N 49°18' W 123°08'0 0.0
2017-May-14 02:28N 49°18' W 123°08'1 1.4
2017-May-14 02:00N 49°18' W 123°07'3 5.9
2017-May-14 01:28N 49°16' W 123°11'0 0.0
2017-May-14 00:52N 49°16' W 123°11'0 0.0
2017-May-14 00:28N 49°16' W 123°11'0 0.0
2017-May-13 23:55N 49°16' W 123°11'0 0.0
2017-May-13 23:28N 49°16' W 123°11'0 0.0
2017-May-13 22:58N 49°16' W 123°11'0 0.0
2017-May-13 22:28N 49°16' W 123°11'0 0.0
2017-May-13 21:55N 49°16' W 123°11'0 0.0
2017-May-13 21:28N 49°16' W 123°11'1 1.3
2017-May-13 21:00N 49°17' W 123°11'0 0.2
2017-May-13 20:30N 49°17' W 123°11'1 1.1
2017-May-13 19:59N 49°17' W 123°10'2 3.4
2017-May-13 19:28N 49°16' W 123°08'0 0.6
2017-May-13 18:59N 49°16' W 123°08'2 4.4
2017-May-13 18:25N 49°17' W 123°12'0 0.8
2017-May-13 18:00N 49°17' W 123°11'0 0.3
2017-May-13 17:26N 49°16' W 123°11'0 0.0
2017-May-13 16:59N 49°16' W 123°11'0 0.0
2017-May-13 16:29N 49°16' W 123°11'0 0.0
2017-May-13 15:41N 49°16' W 123°11'0 0.0
2017-May-13 15:17N 49°16' W 123°11'0 0.0
2017-May-13 14:56N 49°16' W 123°11'0 0.0
2017-May-13 14:26N 49°16' W 123°11'0 0.0
2017-May-13 13:26N 49°16' W 123°11'0 0.0
2017-May-13 12:59N 49°16' W 123°11'0 0.0
2017-May-13 12:29N 49°16' W 123°11'0 0.0
2017-May-13 11:59N 49°16' W 123°11'0 0.0
2017-May-13 11:29N 49°16' W 123°11'0 0.0
2017-May-13 10:56N 49°16' W 123°11'0 0.0
2017-May-13 10:26N 49°16' W 123°11'0 0.0
2017-May-13 09:56N 49°16' W 123°11'0 0.0
2017-May-13 09:29N 49°16' W 123°11'0 0.0
2017-May-13 08:59N 49°16' W 123°11'0 0.0
2017-May-13 08:23N 49°16' W 123°11'0 0.0
2017-May-13 07:59N 49°16' W 123°11'0 0.0
2017-May-13 07:26N 49°16' W 123°11'0 0.0
2017-May-13 06:44N 49°16' W 123°11'0 0.0
2017-May-13 06:29N 49°16' W 123°11'0 0.0
2017-May-13 05:59N 49°16' W 123°11'0 0.0
2017-May-13 05:29N 49°16' W 123°11'0 0.0
2017-May-13 04:44N 49°16' W 123°11'0 0.0
2017-May-13 04:29N 49°16' W 123°11'0 0.0
2017-May-13 03:56N 49°16' W 123°11'0 0.0
2017-May-13 03:29N 49°16' W 123°11'0 0.0
2017-May-13 02:59N 49°16' W 123°11'0 0.0
2017-May-13 02:26N 49°16' W 123°11'0 0.0
2017-May-13 01:44N 49°16' W 123°11'1 2.9
2017-May-13 01:29N 49°17' W 123°11'3 5.4
2017-May-13 00:58N 49°18' W 123°07'1 0.1
2017-May-12 13:11N 49°18' W 123°08'0 0.0
2017-May-12 12:44N 49°18' W 123°08'0 0.0
2017-May-12 12:23N 49°18' W 123°08'0 0.0
2017-May-12 11:53N 49°18' W 123°08'0 0.0
2017-May-12 01:29N 49°18' W 123°08'0 0.0
2017-May-12 00:41N 49°18' W 123°08'0 0.0
2017-May-11 02:40N 49°18' W 123°08'0 0.0
2017-May-11 01:19N 49°18' W 123°08'0 0.0
2017-May-10 01:34N 49°18' W 123°08'0 0.0
2017-May-10 01:28N 49°18' W 123°08'0 0.0
2017-May-09 20:01N 49°18' W 123°08'0 0.0
2017-May-09 19:55N 49°18' W 123°08'0 0.0
2017-May-09 18:25N 49°18' W 123°08'0 0.0
2017-May-09 14:43N 49°18' W 123°08'0 0.0
2017-May-09 09:58N 49°18' W 123°08'0 0.0
2017-May-09 09:01N 49°18' W 123°08'0 0.0
2017-May-09 08:49N 49°18' W 123°08'0 0.0
2017-May-09 08:25N 49°18' W 123°08'0 0.0
2017-May-09 07:58N 49°18' W 123°08'0 0.0
2017-May-09 07:28N 49°18' W 123°08'  

Dump ship's entire track history